Time;durP1;ratioP1;P1;durP2;ratioP2;P2;SDS_P1;SDS_P2;PMS_P1;PMS_P2;Temp;Humidity;BMP_temperature;BMP_pressure;BME280_temperature;BME280_humidity;BME280_pressure;Samples;Min_cycle;Max_cycle;Signal;HPM_P1;HPM_P2
2023/10/24 00:00:17;;;;;;;11.00;5.32;;;;;;;12.09;78.78;100838.41;7390756;19;20551;-64
2023/10/24 00:02:45;;;;;;;10.68;5.70;;;;;;;12.07;78.91;100841.22;7391426;19;20035;-64
2023/10/24 00:05:12;;;;;;;10.43;5.65;;;;;;;12.08;78.94;100839.41;7391614;19;20018;-64
2023/10/24 00:07:40;;;;;;;9.82;5.72;;;;;;;12.14;79.00;100828.31;7391908;19;20022;-64
2023/10/24 00:10:08;;;;;;;10.00;5.30;;;;;;;12.15;78.92;100827.34;7390071;19;20021;-64
2023/10/24 00:12:36;;;;;;;9.15;5.55;;;;;;;12.15;79.10;100820.19;7390739;19;20502;-64
2023/10/24 00:15:04;;;;;;;9.25;5.47;;;;;;;12.19;79.33;100810.19;7390990;19;20019;-64
2023/10/24 00:17:31;;;;;;;10.85;6.15;;;;;;;12.17;79.46;100802.34;7390800;19;20019;-65
2023/10/24 00:19:59;;;;;;;10.15;5.72;;;;;;;12.16;79.46;100799.81;7387290;19;20023;-65
2023/10/24 00:22:26;;;;;;;11.73;5.38;;;;;;;12.17;79.48;100791.75;7389396;19;20046;-65
2023/10/24 00:24:54;;;;;;;11.23;5.93;;;;;;;12.17;79.88;100791.75;7391395;19;20031;-66
2023/10/24 00:27:22;;;;;;;10.18;5.85;;;;;;;12.26;79.37;100794.63;7391426;19;20032;-66
2023/10/24 00:29:50;;;;;;;8.65;5.50;;;;;;;12.28;79.53;100788.19;7385860;19;20021;-66
2023/10/24 00:32:17;;;;;;;10.02;6.07;;;;;;;12.29;79.34;100781.09;7390794;19;20105;-65
2023/10/24 00:34:45;;;;;;;10.38;6.18;;;;;;;12.27;79.58;100773.25;7391126;19;20104;-65
2023/10/24 00:37:13;;;;;;;11.57;5.90;;;;;;;12.25;79.43;100772.53;7390414;19;20016;-65
2023/10/24 00:39:40;;;;;;;10.63;5.88;;;;;;;12.30;79.50;100764.19;7387185;19;20788;-65
2023/10/24 00:42:08;;;;;;;10.77;6.30;;;;;;;12.30;79.52;100759.72;7390433;19;20011;-67
2023/10/24 00:44:36;;;;;;;9.30;6.32;;;;;;;12.34;79.46;100755.00;7390251;19;20555;-64
2023/10/24 00:47:04;;;;;;;11.65;6.82;;;;;;;12.38;79.46;100749.31;7388900;19;20096;-64
2023/10/24 00:49:32;;;;;;;9.55;5.85;;;;;;;12.41;79.62;100756.22;7387619;19;20086;-66
2023/10/24 00:52:00;;;;;;;10.52;6.30;;;;;;;12.40;79.38;100755.38;7388397;19;20371;-67
2023/10/24 00:54:29;;;;;;;11.50;6.70;;;;;;;12.39;79.43;100743.03;7389681;19;20507;-67
2023/10/24 00:56:57;;;;;;;10.43;6.40;;;;;;;12.36;79.72;100738.00;7395936;19;20040;-66
2023/10/24 00:59:27;;;;;;;11.68;6.38;;;;;;;12.40;79.64;100746.53;7394539;19;20085;-66
2023/10/24 01:01:55;;;;;;;11.23;6.45;;;;;;;12.38;79.86;100730.72;7397624;19;20041;-65
2023/10/24 01:04:23;;;;;;;11.80;5.82;;;;;;;12.40;80.07;100720.84;7395396;19;20018;-66
2023/10/24 01:06:51;;;;;;;9.52;6.07;;;;;;;12.41;79.96;100717.22;7397243;19;20043;-66
2023/10/24 01:09:18;;;;;;;11.15;6.30;;;;;;;12.42;79.62;100718.03;7394044;19;20401;-66
2023/10/24 01:11:49;;;;;;;11.23;6.70;;;;;;;12.44;79.84;100716.13;7396505;19;20490;-66
2023/10/24 01:14:16;;;;;;;11.75;6.65;;;;;;;12.42;80.17;100712.72;7395125;19;20611;-64
2023/10/24 01:16:45;;;;;;;10.63;6.03;;;;;;;12.44;80.06;100705.50;7395081;19;20019;-65
2023/10/24 01:19:13;;;;;;;11.20;6.03;;;;;;;12.47;79.93;100713.19;7393138;19;20030;-65
2023/10/24 01:21:46;;;;;;;11.13;5.90;;;;;;;12.51;80.03;100703.16;7396441;19;20034;-65
2023/10/24 01:24:15;;;;;;;12.05;6.95;;;;;;;12.52;80.06;100696.91;7396893;19;20502;-65
2023/10/24 01:26:44;;;;;;;13.57;6.53;;;;;;;12.54;80.13;100695.78;7396093;19;20021;-66
2023/10/24 01:29:12;;;;;;;10.95;6.07;;;;;;;12.57;80.14;100687.56;7392457;19;20338;-65
2023/10/24 01:31:40;;;;;;;11.45;6.75;;;;;;;12.53;80.27;100679.97;7396546;19;20027;-65
2023/10/24 01:34:07;;;;;;;14.10;6.65;;;;;;;12.53;80.65;100679.97;7393508;19;20672;-65
2023/10/24 01:36:35;;;;;;;11.02;6.53;;;;;;;12.53;80.85;100664.03;7396028;19;20018;-65
2023/10/24 01:39:03;;;;;;;11.25;6.85;;;;;;;12.49;80.99;100655.50;7395028;19;20055;-66
2023/10/24 01:41:30;;;;;;;11.02;6.43;;;;;;;12.47;81.45;100667.19;7396139;19;20031;-65
2023/10/24 01:43:58;;;;;;;11.70;6.80;;;;;;;12.50;81.28;100657.16;7396216;19;20015;-66
2023/10/24 01:46:25;;;;;;;11.48;6.68;;;;;;;12.49;81.67;100658.13;7396173;19;20397;-66
2023/10/24 01:48:53;;;;;;;10.57;7.25;;;;;;;12.47;81.60;100653.91;7395137;19;20043;-66
2023/10/24 01:51:21;;;;;;;9.27;6.22;;;;;;;12.48;81.78;100655.59;7395537;19;20018;-65
2023/10/24 01:53:49;;;;;;;10.20;6.50;;;;;;;12.47;81.64;100646.78;7396958;19;20010;-65
2023/10/24 01:56:16;;;;;;;10.82;6.57;;;;;;;12.49;81.53;100641.38;7398198;19;20021;-65
2023/10/24 01:58:44;;;;;;;10.45;6.30;;;;;;;12.52;81.65;100646.44;7395558;19;20018;-65
2023/10/24 02:01:11;;;;;;;11.38;7.32;;;;;;;12.51;81.80;100642.91;7395484;19;20007;-63
2023/10/24 02:03:39;;;;;;;10.52;6.97;;;;;;;12.52;81.73;100649.94;7397214;19;20014;-63
2023/10/24 02:06:07;;;;;;;10.95;6.50;;;;;;;12.50;81.88;100649.19;7397794;19;20025;-63
2023/10/24 02:08:35;;;;;;;9.95;6.50;;;;;;;12.54;81.99;100660.41;7395414;19;20018;-64
2023/10/24 02:11:02;;;;;;;14.65;6.72;;;;;;;12.52;82.23;100657.06;7395066;19;20026;-64
2023/10/24 02:13:30;;;;;;;15.68;8.02;;;;;;;12.53;82.30;100654.25;7396465;19;20039;-63
2023/10/24 02:15:58;;;;;;;15.43;7.28;;;;;;;12.57;82.22;100658.34;7394022;19;20011;-65
2023/10/24 02:18:25;;;;;;;13.13;7.05;;;;;;;12.59;82.09;100651.09;7394514;19;20033;-65
2023/10/24 02:20:53;;;;;;;10.05;6.57;;;;;;;12.62;81.93;100644.66;7391972;19;20040;-66
2023/10/24 02:23:20;;;;;;;10.43;6.15;;;;;;;12.62;82.23;100640.19;7394978;19;20026;-66
2023/10/24 02:25:49;;;;;;;10.40;6.05;;;;;;;12.61;82.10;100638.50;7394459;19;20022;-65
2023/10/24 02:28:18;;;;;;;13.10;6.80;;;;;;;12.62;82.32;100634.03;7394311;19;20043;-64
2023/10/24 02:30:45;;;;;;;11.27;6.75;;;;;;;12.60;82.26;100622.72;7393344;19;20388;-65
2023/10/24 02:33:13;;;;;;;15.10;7.60;;;;;;;12.56;82.74;100614.16;7393420;19;20054;-65
2023/10/24 02:35:40;;;;;;;13.45;7.22;;;;;;;12.61;82.57;100619.06;7394211;19;20015;-65
2023/10/24 02:38:08;;;;;;;13.18;6.95;;;;;;;12.65;82.42;100604.56;7393393;19;20380;-65
2023/10/24 02:40:36;;;;;;;14.45;7.50;;;;;;;12.64;82.52;100605.53;7392227;19;20018;-64
2023/10/24 02:43:03;;;;;;;16.65;7.10;;;;;;;12.69;82.29;100603.31;7394281;19;20049;-64
2023/10/24 02:45:31;;;;;;;16.58;7.63;;;;;;;12.66;82.34;100591.13;7393984;19;20010;-64
2023/10/24 02:47:58;;;;;;;13.75;7.30;;;;;;;12.65;82.41;100591.28;7393337;19;20018;-66
2023/10/24 02:50:26;;;;;;;12.45;6.45;;;;;;;12.65;82.67;100580.66;7392418;19;20086;-66
2023/10/24 02:52:53;;;;;;;14.32;7.00;;;;;;;12.61;82.74;100582.72;7393687;19;20043;-67
2023/10/24 02:55:21;;;;;;;10.70;6.50;;;;;;;12.63;82.85;100578.13;7392169;19;20081;-67
2023/10/24 02:57:49;;;;;;;14.13;6.47;;;;;;;12.66;82.66;100567.22;7392682;19;20014;-66
2023/10/24 03:00:16;;;;;;;12.13;6.47;;;;;;;12.66;82.76;100569.88;7390755;19;20010;-65
2023/10/24 03:02:44;;;;;;;12.10;7.00;;;;;;;12.63;82.65;100562.19;7393659;19;20018;-65
2023/10/24 03:05:11;;;;;;;13.80;6.85;;;;;;;12.64;82.75;100571.84;7392792;19;20412;-65
2023/10/24 03:07:39;;;;;;;14.23;7.10;;;;;;;12.66;82.84;100553.09;7393188;19;20026;-66
2023/10/24 03:10:07;;;;;;;12.88;7.03;;;;;;;12.68;82.85;100553.81;7392344;19;20025;-65
2023/10/24 03:12:35;;;;;;;14.52;7.18;;;;;;;12.66;82.91;100547.78;7394587;19;20026;-64
2023/10/24 03:15:03;;;;;;;17.48;8.00;;;;;;;12.65;83.07;100541.63;7393682;19;20039;-64
2023/10/24 03:17:30;;;;;;;15.63;7.55;;;;;;;12.65;82.98;100538.97;7393016;19;20018;-64
2023/10/24 03:19:58;;;;;;;16.90;7.78;;;;;;;12.63;82.92;100534.75;7390883;19;20065;-64
2023/10/24 03:22:26;;;;;;;14.93;7.53;;;;;;;12.62;83.18;100531.28;7392688;19;20014;-66
2023/10/24 03:24:55;;;;;;;13.40;7.78;;;;;;;12.64;83.05;100537.31;7394098;19;20425;-65
2023/10/24 03:27:23;;;;;;;17.30;7.68;;;;;;;12.67;82.76;100531.72;7393131;19;20105;-65
2023/10/24 03:29:50;;;;;;;16.15;7.97;;;;;;;12.73;82.73;100534.81;7390565;19;20014;-65
2023/10/24 03:32:18;;;;;;;13.95;7.55;;;;;;;12.71;82.80;100532.31;7392292;19;20361;-65
2023/10/24 03:34:45;;;;;;;12.43;6.72;;;;;;;12.69;82.80;100528.94;7391705;19;20102;-66
2023/10/24 03:37:14;;;;;;;11.82;6.68;;;;;;;12.69;82.92;100535.09;7392764;19;20089;-65
2023/10/24 03:39:41;;;;;;;10.70;6.32;;;;;;;12.71;82.95;100540.28;7389762;19;20023;-66
2023/10/24 03:42:13;;;;;;;12.20;6.03;;;;;;;12.73;82.97;100530.34;7392818;19;20018;-66
2023/10/24 03:44:41;;;;;;;10.48;6.65;;;;;;;12.72;82.71;100530.50;7392867;19;20010;-66
2023/10/24 03:47:09;;;;;;;12.30;6.57;;;;;;;12.69;83.16;100527.13;7392400;19;20015;-66
2023/10/24 03:49:36;;;;;;;10.77;6.22;;;;;;;12.66;83.33;100524.72;7389066;19;20022;-65
2023/10/24 03:52:05;;;;;;;9.50;6.28;;;;;;;12.65;83.23;100517.72;7391917;19;20380;-65
2023/10/24 03:54:33;;;;;;;10.90;6.55;;;;;;;12.63;83.36;100518.81;7390830;19;20389;-66
2023/10/24 03:57:00;;;;;;;9.70;6.15;;;;;;;12.67;83.66;100520.28;7391887;19;20364;-64
2023/10/24 03:59:28;;;;;;;12.13;6.00;;;;;;;12.66;83.63;100523.88;7389186;19;20014;-64
2023/10/24 04:01:56;;;;;;;11.40;6.20;;;;;;;12.68;83.65;100522.78;7392309;19;20108;-63
2023/10/24 04:04:24;;;;;;;10.45;5.88;;;;;;;12.69;83.58;100513.00;7391904;19;20018;-64
2023/10/24 04:06:51;;;;;;;9.85;6.18;;;;;;;12.71;83.30;100505.75;7390902;19;20011;-65
2023/10/24 04:09:19;;;;;;;9.77;5.70;;;;;;;12.69;83.34;100497.88;7388852;19;20023;-65
2023/10/24 04:12:04;;;;;;;11.10;7.18;;;;;;;12.65;84.11;100498.28;7391877;19;20014;-66
2023/10/24 04:14:32;;;;;;;10.75;6.40;;;;;;;12.63;83.84;100498.44;7390387;19;20068;-64
2023/10/24 04:16:59;;;;;;;9.85;6.15;;;;;;;12.70;84.00;100509.34;7391612;19;20018;-64
2023/10/24 04:19:28;;;;;;;10.35;5.65;;;;;;;12.72;84.03;100511.91;7386970;19;20019;-65
2023/10/24 04:21:55;;;;;;;10.45;5.82;;;;;;;12.72;83.71;100507.41;7391223;19;20031;-65
2023/10/24 04:24:23;;;;;;;10.40;6.10;;;;;;;12.73;84.02;100493.16;7390608;19;20093;-66
2023/10/24 04:26:51;;;;;;;9.43;5.93;;;;;;;12.68;84.37;100490.91;7390716;19;20027;-66
2023/10/24 04:29:18;;;;;;;9.93;6.03;;;;;;;12.71;84.25;100481.84;7391038;19;20015;-66
2023/10/24 04:31:46;;;;;;;11.35;6.10;;;;;;;12.70;84.17;100490.75;7398031;19;20019;-66
2023/10/24 04:34:14;;;;;;;9.52;6.22;;;;;;;12.72;84.39;100490.63;7397604;19;20028;-66
2023/10/24 04:36:41;;;;;;;10.50;6.25;;;;;;;12.71;84.42;100483.66;7396591;19;20017;-66
2023/10/24 04:39:09;;;;;;;10.43;6.18;;;;;;;12.76;84.28;100482.25;7395071;19;20040;-67
2023/10/24 04:41:37;;;;;;;10.43;6.03;;;;;;;12.78;84.21;100490.09;7396799;19;20348;-67
2023/10/24 04:44:04;;;;;;;11.15;6.22;;;;;;;12.80;84.07;100498.78;7396737;19;20107;-68
2023/10/24 04:46:32;;;;;;;9.50;5.80;;;;;;;12.76;84.47;100498.22;7398647;19;20046;-67
2023/10/24 04:49:00;;;;;;;10.90;6.50;;;;;;;12.74;84.55;100494.00;7396888;19;20033;-68
2023/10/24 04:51:28;;;;;;;11.48;6.85;;;;;;;12.73;84.36;100495.81;7396774;19;20010;-70
2023/10/24 04:53:55;;;;;;;10.10;5.80;;;;;;;12.76;84.65;100498.22;7397480;19;20099;-68
2023/10/24 04:56:24;;;;;;;11.27;6.00;;;;;;;12.79;84.38;100481.16;7397932;19;20015;-68
2023/10/24 04:58:51;;;;;;;9.55;6.28;;;;;;;12.76;84.56;100484.09;7396145;19;20089;-68
2023/10/24 05:01:19;;;;;;;8.80;5.97;;;;;;;12.76;84.66;100492.06;7396788;19;20039;-68
2023/10/24 05:03:46;;;;;;;10.48;6.03;;;;;;;12.82;84.55;100487.06;7397295;19;20025;-67
2023/10/24 05:06:14;;;;;;;10.63;5.90;;;;;;;12.83;84.35;100487.88;7395999;19;20034;-68
2023/10/24 05:08:42;;;;;;;8.70;5.97;;;;;;;12.85;84.28;100491.25;7396322;19;20491;-68
2023/10/24 05:11:09;;;;;;;10.05;6.00;;;;;;;12.87;84.27;100481.31;7395204;19;20086;-67
2023/10/24 05:13:37;;;;;;;10.82;6.40;;;;;;;12.84;84.31;100479.78;7397268;19;20032;-70
2023/10/24 05:16:04;;;;;;;8.88;6.00;;;;;;;12.87;84.41;100474.19;7393281;19;20038;-68
2023/10/24 05:18:32;;;;;;;11.20;6.43;;;;;;;12.87;84.36;100468.88;7396349;19;20018;-67
2023/10/24 05:21:00;;;;;;;9.40;6.30;;;;;;;12.87;84.44;100465.38;7395931;19;20029;-67
2023/10/24 05:23:29;;;;;;;10.05;6.18;;;;;;;12.86;84.36;100467.19;7396882;19;20483;-68
2023/10/24 05:25:57;;;;;;;9.18;6.22;;;;;;;12.82;84.67;100467.59;7396703;19;20410;-65
2023/10/24 05:28:25;;;;;;;11.38;6.35;;;;;;;12.87;84.51;100466.22;7396330;19;20022;-65
2023/10/24 05:30:52;;;;;;;11.73;6.45;;;;;;;12.90;84.25;100463.31;7396384;19;20047;-65
2023/10/24 05:33:20;;;;;;;9.23;6.45;;;;;;;12.84;84.45;100453.19;7395887;19;20022;-65
2023/10/24 05:35:48;;;;;;;9.90;6.65;;;;;;;12.85;84.69;100449.56;7393427;19;20051;-66
2023/10/24 05:38:15;;;;;;;10.55;6.57;;;;;;;12.87;84.58;100460.06;7395425;19;20029;-65
2023/10/24 05:40:45;;;;;;;11.60;6.57;;;;;;;12.87;84.35;100478.66;7393687;19;20018;-65
2023/10/24 05:43:13;;;;;;;11.10;7.00;;;;;;;12.93;84.40;100472.81;7393881;19;20014;-65
2023/10/24 05:45:40;;;;;;;10.23;7.13;;;;;;;12.91;84.43;100464.97;7393049;19;20531;-65
2023/10/24 05:48:08;;;;;;;11.40;6.78;;;;;;;12.90;84.35;100450.00;7395669;19;20043;-65
2023/10/24 05:50:36;;;;;;;12.20;6.88;;;;;;;12.86;84.33;100440.63;7388702;19;20010;-65
2023/10/24 05:53:04;;;;;;;11.30;6.22;;;;;;;12.90;84.51;100436.72;7395507;19;20026;-65
2023/10/24 05:55:35;;;;;;;12.93;6.90;;;;;;;12.96;84.56;100435.31;7392736;19;20082;-65
2023/10/24 05:58:03;;;;;;;11.55;6.93;;;;;;;12.92;84.39;100457.84;7393260;19;20019;-65
2023/10/24 06:00:30;;;;;;;12.80;7.50;;;;;;;12.92;84.42;100469.31;7393119;19;20014;-65
2023/10/24 06:02:58;;;;;;;10.88;7.40;;;;;;;12.96;84.50;100469.88;7393287;19;20436;-65
2023/10/24 06:05:26;;;;;;;11.18;7.25;;;;;;;12.98;83.96;100462.63;7395059;19;20104;-65
2023/10/24 06:07:53;;;;;;;12.02;7.07;;;;;;;12.95;84.28;100454.06;7394215;19;20023;-65
2023/10/24 06:10:21;;;;;;;14.82;8.05;;;;;;;12.97;84.19;100455.59;7393724;19;20433;-65
2023/10/24 06:12:49;;;;;;;12.30;7.78;;;;;;;12.93;84.68;100456.84;7394849;19;20035;-65
2023/10/24 06:15:17;;;;;;;12.48;7.97;;;;;;;12.95;84.42;100454.91;7393840;19;20019;-65
2023/10/24 06:17:44;;;;;;;14.02;7.40;;;;;;;12.92;84.63;100450.69;7393849;19;20014;-64
2023/10/24 06:20:12;;;;;;;11.32;7.30;;;;;;;12.97;84.40;100452.09;7392969;19;20022;-65
2023/10/24 06:22:40;;;;;;;13.75;7.72;;;;;;;12.99;84.37;100453.66;7393887;19;20098;-65
2023/10/24 06:25:09;;;;;;;12.57;7.57;;;;;;;12.98;84.48;100452.00;7390040;19;20018;-66
2023/10/24 06:27:37;;;;;;;11.00;7.05;;;;;;;12.96;84.67;100453.09;7393933;19;20039;-65
2023/10/24 06:30:05;;;;;;;10.40;7.30;;;;;;;12.98;84.48;100452.00;7391571;19;20015;-65
2023/10/24 06:32:35;;;;;;;14.13;7.78;;;;;;;12.98;84.37;100443.19;7394149;19;20018;-65
2023/10/24 06:35:03;;;;;;;13.00;7.95;;;;;;;13.01;84.44;100445.53;7392898;19;20021;-66
2023/10/24 06:37:30;;;;;;;10.93;7.07;;;;;;;12.99;84.64;100455.47;7393049;19;20049;-65
2023/10/24 06:39:58;;;;;;;11.82;8.07;;;;;;;12.97;84.58;100458.25;7385790;19;20389;-65
2023/10/24 06:42:26;;;;;;;11.25;7.78;;;;;;;13.00;84.48;100452.69;7390848;19;20055;-65
2023/10/24 06:44:54;;;;;;;12.40;8.15;;;;;;;13.03;84.36;100460.38;7394367;19;20074;-65
2023/10/24 06:47:24;;;;;;;14.50;7.93;;;;;;;13.03;84.51;100465.69;7392314;19;20465;-65
2023/10/24 06:49:52;;;;;;;10.77;7.65;;;;;;;13.03;84.67;100478.16;7388779;19;20043;-66
2023/10/24 06:52:19;;;;;;;14.20;8.25;;;;;;;12.92;84.81;100466.66;7391752;19;20476;-66
2023/10/24 06:54:47;;;;;;;14.00;8.10;;;;;;;13.02;84.92;100463.19;7390829;19;20014;-66
2023/10/24 06:57:15;;;;;;;13.38;8.27;;;;;;;13.07;84.38;100450.31;7391873;19;20018;-65
2023/10/24 06:59:43;;;;;;;12.27;7.53;;;;;;;13.15;84.05;100451.31;7385374;19;20015;-65
2023/10/24 07:02:10;;;;;;;13.05;8.30;;;;;;;13.14;84.04;100452.28;7392688;19;20016;-65
2023/10/24 07:04:38;;;;;;;14.20;7.78;;;;;;;13.15;84.32;100461.09;7397199;19;20011;-65
2023/10/24 07:07:06;;;;;;;10.40;7.47;;;;;;;13.16;84.15;100453.00;7393579;19;20011;-66
2023/10/24 07:09:34;;;;;;;10.95;7.57;;;;;;;13.19;84.31;100446.56;7393032;19;20030;-66
2023/10/24 07:12:02;;;;;;;11.15;8.00;;;;;;;13.21;84.25;100455.25;7396211;19;20527;-66
2023/10/24 07:14:30;;;;;;;12.48;7.60;;;;;;;13.18;84.14;100456.34;7390594;19;20010;-66
2023/10/24 07:17:00;;;;;;;14.00;8.02;;;;;;;13.23;84.22;100458.63;7394618;19;20035;-65
2023/10/24 07:19:28;;;;;;;12.70;7.20;;;;;;;13.12;84.26;100467.53;7390719;19;20010;-65
2023/10/24 07:21:56;;;;;;;11.55;6.82;;;;;;;13.03;84.84;100472.84;7396104;19;20097;-66
2023/10/24 07:24:23;;;;;;;10.27;6.40;;;;;;;13.03;84.96;100483.47;7394823;19;20365;-67
2023/10/24 07:26:51;;;;;;;12.98;6.53;;;;;;;13.02;85.26;100476.47;7395075;19;20029;-66
2023/10/24 07:29:18;;;;;;;11.75;6.45;;;;;;;13.14;84.59;100470.06;7392549;19;20010;-66
2023/10/24 07:31:46;;;;;;;10.43;6.30;;;;;;;13.14;84.58;100454.97;7395840;19;20022;-66
2023/10/24 07:34:13;;;;;;;9.82;6.07;;;;;;;13.20;84.40;100453.56;7396957;19;20018;-66
2023/10/24 07:36:41;;;;;;;10.30;6.63;;;;;;;13.23;84.28;100455.97;7393762;19;20011;-66
2023/10/24 07:39:09;;;;;;;12.30;6.78;;;;;;;13.23;84.62;100447.13;7393505;19;20341;-66
2023/10/24 07:41:36;;;;;;;10.70;6.95;;;;;;;13.29;84.48;100435.97;7392835;19;20360;-66
2023/10/24 07:44:04;;;;;;;11.50;6.95;;;;;;;13.33;84.22;100438.22;7396003;19;20706;-66
2023/10/24 07:46:32;;;;;;;10.85;8.00;;;;;;;13.37;84.10;100441.44;7394893;19;20014;-66
2023/10/24 07:49:00;;;;;;;9.48;6.30;;;;;;;13.40;84.06;100442.00;7392759;19;20019;-66
2023/10/24 07:51:31;;;;;;;12.10;7.30;;;;;;;13.40;84.09;100450.00;7393339;19;20018;-66
2023/10/24 07:53:59;;;;;;;11.82;6.97;;;;;;;13.40;84.34;100465.13;7395432;19;20011;-66
2023/10/24 07:56:26;;;;;;;13.07;6.40;;;;;;;13.41;84.21;100459.63;7389913;19;20019;-66
2023/10/24 07:58:54;;;;;;;9.68;5.82;;;;;;;13.46;84.05;100453.06;7390212;19;20034;-66
2023/10/24 08:01:22;;;;;;;11.02;6.55;;;;;;;13.45;84.03;100446.06;7390951;19;20104;-66
2023/10/24 08:03:50;;;;;;;11.95;6.95;;;;;;;13.48;84.06;100441.31;7399451;19;20026;-67
2023/10/24 08:06:17;;;;;;;10.98;7.60;;;;;;;13.48;84.10;100440.47;7400854;19;20018;-67
2023/10/24 08:08:45;;;;;;;11.50;6.90;;;;;;;13.56;83.99;100443.28;7398809;19;20010;-65
2023/10/24 08:11:13;;;;;;;9.85;6.63;;;;;;;13.61;83.78;100427.72;7400713;19;20015;-65
2023/10/24 08:13:41;;;;;;;12.82;7.13;;;;;;;13.64;83.50;100407.00;7401257;19;20018;-65
2023/10/24 08:16:08;;;;;;;10.43;7.30;;;;;;;13.69;83.53;100416.38;7400327;19;20380;-65
2023/10/24 08:18:37;;;;;;;10.95;7.20;;;;;;;13.75;83.53;100429.13;7400245;19;20011;-66
2023/10/24 08:21:09;;;;;;;11.07;7.28;;;;;;;13.75;83.51;100429.97;7399234;19;20495;-66
2023/10/24 08:23:36;;;;;;;10.95;7.65;;;;;;;13.68;84.11;100436.81;7401531;19;20028;-66
2023/10/24 08:26:04;;;;;;;11.40;7.95;;;;;;;13.77;83.72;100429.81;7402744;19;20418;-66
2023/10/24 08:28:32;;;;;;;13.43;7.78;;;;;;;13.81;83.37;100426.75;7398986;19;20019;-66
2023/10/24 08:30:59;;;;;;;12.77;7.90;;;;;;;13.81;83.31;100421.41;7399953;19;20014;-66
2023/10/24 08:33:28;;;;;;;13.63;7.18;;;;;;;13.87;83.29;100425.31;7399336;19;20015;-66
2023/10/24 08:35:56;;;;;;;11.00;7.80;;;;;;;13.84;83.38;100415.78;7400622;19;20081;-64
2023/10/24 08:38:23;;;;;;;13.57;8.07;;;;;;;13.84;83.32;100421.09;7399251;19;20449;-66
2023/10/24 08:40:51;;;;;;;11.60;7.30;;;;;;;13.87;83.49;100425.31;7398236;19;20642;-65
2023/10/24 08:43:20;;;;;;;11.95;7.82;;;;;;;13.92;83.39;100427.56;7400255;19;20102;-64
2023/10/24 08:45:50;;;;;;;12.73;7.55;;;;;;;13.92;83.41;100424.88;7400861;19;20088;-65
2023/10/24 08:48:18;;;;;;;13.38;7.18;;;;;;;13.90;83.58;100415.22;7399897;19;20018;-65
2023/10/24 08:50:46;;;;;;;15.25;6.93;;;;;;;13.87;83.66;100420.84;7400162;19;20050;-65
2023/10/24 08:53:15;;;;;;;11.13;7.65;;;;;;;13.89;83.54;100423.38;7401762;19;20018;-66
2023/10/24 08:55:51;;;;;;;10.20;6.78;;;;;;;13.93;83.42;100421.22;7399501;19;20018;-65
2023/10/24 08:58:20;;;;;;;12.05;6.82;;;;;;;13.86;83.63;100413.84;7399050;19;20022;-65
2023/10/24 09:00:50;;;;;;;14.00;7.65;;;;;;;13.92;83.41;100430.22;7399629;19;20022;-65
2023/10/24 09:03:17;;;;;;;13.52;6.80;;;;;;;13.93;83.18;100414.13;7398497;19;20024;-65
2023/10/24 09:05:46;;;;;;;13.52;6.70;;;;;;;13.93;83.22;100421.22;7398799;19;20046;-65
2023/10/24 09:08:16;;;;;;;12.88;6.82;;;;;;;13.92;83.35;100422.22;7401572;19;20031;-65
2023/10/24 09:10:46;;;;;;;11.70;6.78;;;;;;;13.87;83.10;100422.66;7399414;19;20019;-66
2023/10/24 09:13:14;;;;;;;12.52;6.50;;;;;;;13.88;83.03;100424.31;7401148;19;20543;-65
2023/10/24 09:15:41;;;;;;;13.80;6.57;;;;;;;13.94;82.67;100417.59;7397726;19;20018;-65
2023/10/24 09:18:09;;;;;;;11.15;6.28;;;;;;;14.01;82.64;100421.38;7399054;19;20029;-66
2023/10/24 09:20:37;;;;;;;11.75;6.20;;;;;;;13.97;82.69;100418.16;7398721;19;20010;-66
2023/10/24 09:23:09;;;;;;;9.50;6.10;;;;;;;13.99;82.53;100418.84;7400312;19;20027;-65
2023/10/24 09:25:37;;;;;;;11.20;5.88;;;;;;;14.00;82.57;100425.84;7399160;19;20019;-65
2023/10/24 09:28:21;;;;;;;10.63;5.60;;;;;;;14.03;82.49;100428.22;7399319;19;20094;-65
2023/10/24 09:30:49;;;;;;;;;;;;;;;13.76;83.03;100428.13;7399096;19;20019;-65
2023/10/24 09:33:16;;;;;;;10.07;5.78;;;;;;;13.75;83.80;100429.97;7400988;19;19921;-65
2023/10/24 09:35:44;;;;;;;11.02;5.60;;;;;;;13.84;83.39;100426.44;7399247;19;20018;-64
2023/10/24 09:38:30;;;;;;;11.85;5.78;;;;;;;13.89;83.24;100418.88;7397655;19;20014;-64
2023/10/24 09:40:57;;;;;;;11.95;5.82;;;;;;;13.81;83.47;100431.19;7398064;19;20047;-65
2023/10/24 09:43:29;;;;;;;9.88;5.47;;;;;;;13.90;82.84;100427.69;7399932;19;20022;-65
2023/10/24 09:45:58;;;;;;;11.00;5.95;;;;;;;13.93;82.94;100434.53;7397001;19;20014;-65
2023/10/24 09:48:26;;;;;;;9.27;5.82;;;;;;;13.98;82.79;100432.31;7396561;19;20022;-66
2023/10/24 09:50:55;;;;;;;11.90;5.75;;;;;;;14.07;82.46;100426.13;7396364;19;20035;-65
2023/10/24 09:53:23;;;;;;;10.60;5.82;;;;;;;14.18;82.26;100443.75;7397413;19;20039;-66
2023/10/24 09:55:52;;;;;;;12.07;6.03;;;;;;;14.21;82.19;100438.16;7396746;19;20018;-65
2023/10/24 09:58:24;;;;;;;10.38;5.40;;;;;;;14.30;81.81;100438.09;7396363;19;20028;-65
2023/10/24 10:00:52;;;;;;;10.40;5.20;;;;;;;14.26;81.93;100442.03;7393933;19;20021;-65
2023/10/24 10:03:21;;;;;;;8.80;5.40;;;;;;;14.36;81.77;100452.69;7396458;19;20014;-65
2023/10/24 10:05:50;;;;;;;7.82;4.88;;;;;;;14.41;81.68;100433.59;7396954;19;20499;-65
2023/10/24 10:08:21;;;;;;;9.23;5.30;;;;;;;14.45;81.58;100430.47;7396504;19;20092;-66
2023/10/24 10:10:51;;;;;;;12.75;5.18;;;;;;;14.52;81.54;100420.13;7394017;19;20038;-66
2023/10/24 10:13:27;;;;;;;10.65;4.93;;;;;;;14.58;81.50;100415.06;7394603;19;20010;-66
2023/10/24 10:16:00;;;;;;;13.60;8.63;;;;;;;14.65;81.37;100417.09;7396067;19;20022;-66
2023/10/24 10:18:46;;;;;;;10.90;5.97;;;;;;;14.73;81.04;100415.41;7395863;19;20039;-66
2023/10/24 10:21:16;;;;;;;8.15;4.53;;;;;;;14.62;81.22;100408.44;7395500;19;20025;-66
2023/10/24 10:23:47;;;;;;;10.15;4.90;;;;;;;14.71;81.20;100398.69;7397825;19;20479;-66
2023/10/24 10:26:24;;;;;;;10.70;5.10;;;;;;;14.79;80.90;100405.97;7397868;19;20010;-66
2023/10/24 10:29:05;;;;;;;8.45;4.47;;;;;;;14.86;80.75;100410.53;7394836;19;20704;-66
2023/10/24 10:31:38;;;;;;;6.72;4.00;;;;;;;14.73;80.93;100404.75;7395883;19;20042;-67
2023/10/24 10:34:34;;;;;;;10.77;4.40;;;;;;;14.74;80.71;100400.25;7394865;19;20026;-67
2023/10/24 10:37:03;;;;;;;7.90;4.05;;;;;;;14.76;80.57;100398.25;7397395;19;20031;-67
2023/10/24 10:39:31;;;;;;;8.30;4.38;;;;;;;14.86;80.49;100396.38;7393697;19;20753;-67
2023/10/24 10:41:58;;;;;;;9.35;4.15;;;;;;;14.94;80.37;100400.97;7397686;19;20017;-67
2023/10/24 10:44:38;;;;;;;7.47;3.97;;;;;;;14.96;79.99;100383.00;7396152;19;20016;-67
2023/10/24 10:47:14;;;;;;;8.48;4.32;;;;;;;14.95;80.03;100390.13;7397706;19;20025;-67
2023/10/24 10:49:44;;;;;;;7.70;4.38;;;;;;;14.92;80.00;100384.25;7394100;19;20077;-66
2023/10/24 10:52:22;;;;;;;7.00;4.03;;;;;;;15.01;79.65;100391.38;7397704;19;20032;-66
2023/10/24 10:54:59;;;;;;;7.75;3.95;;;;;;;15.03;79.66;100387.59;7396700;19;20018;-66
2023/10/24 10:57:32;;;;;;;8.20;3.88;;;;;;;15.01;79.74;100378.03;7395406;19;20718;-66
2023/10/24 11:00:04;;;;;;;7.80;4.07;;;;;;;15.04;79.40;100375.09;7394720;19;20026;-66
2023/10/24 11:03:27;;;;;;;7.43;3.92;;;;;;;15.03;77.90;100386.72;7394908;19;20022;-66
2023/10/24 11:05:55;;;;;;;8.15;4.00;;;;;;;14.86;78.94;100377.72;7392864;19;20402;-66
2023/10/24 11:08:24;;;;;;;8.57;3.85;;;;;;;14.92;78.41;100378.94;7395357;19;20348;-66
2023/10/24 11:10:59;;;;;;;8.45;4.18;;;;;;;14.96;77.82;100380.34;7395486;19;20047;-66
2023/10/24 11:13:51;;;;;;;7.75;3.97;;;;;;;15.00;77.76;100384.38;7395028;19;20349;-66
2023/10/24 11:16:19;;;;;;;7.00;3.92;;;;;;;14.95;78.13;100386.63;7394111;19;20035;-66
2023/10/24 11:19:04;;;;;;;6.22;3.55;;;;;;;15.01;77.78;100372.72;7395932;19;20018;-66
2023/10/24 11:21:32;;;;;;;8.50;4.15;;;;;;;15.11;77.13;100370.81;7396516;19;20054;-66
2023/10/24 11:24:00;;;;;;;6.05;3.42;;;;;;;15.17;76.97;100366.69;7396277;19;20022;-66
2023/10/24 11:26:28;;;;;;;7.90;3.90;;;;;;;15.22;76.27;100369.72;7395113;19;20017;-66